Time;durP1;ratioP1;P1;durP2;ratioP2;P2;SDS_P1;SDS_P2;PMS_P1;PMS_P2;Temp;Humidity;BMP_temperature;BMP_pressure;BME280_temperature;BME280_humidity;BME280_pressure;Samples;Min_cycle;Max_cycle;Signal;HPM_P1;HPM_P2
2021/03/12 00:00:32;;;;;;;2.87;1.40;;;6.00;99.90;;;;;;6162504;23;20436;-83
2021/03/12 00:03:09;;;;;;;3.27;1.40;;;6.10;99.90;;;;;;6173523;23;20462;-83
2021/03/12 00:05:41;;;;;;;4.60;1.60;;;6.00;99.90;;;;;;6173346;23;20488;-83
2021/03/12 00:08:08;;;;;;;5.07;1.67;;;5.90;99.90;;;;;;6163142;23;20479;-83
2021/03/12 00:10:38;;;;;;;4.20;1.87;;;5.90;99.90;;;;;;6162433;23;20443;-83
2021/03/12 00:13:05;;;;;;;4.83;2.30;;;5.90;99.90;;;;;;6138448;23;20443;-83
2021/03/12 00:15:32;;;;;;;2.13;1.20;;;5.90;99.90;;;;;;6174412;23;20401;-83
2021/03/12 00:18:00;;;;;;;3.10;1.60;;;5.90;99.90;;;;;;6162648;23;20729;-82
2021/03/12 00:20:30;;;;;;;3.42;1.95;;;5.80;99.90;;;;;;6162717;23;20471;-82
2021/03/12 00:22:57;;;;;;;4.73;2.00;;;5.80;99.90;;;;;;6179039;23;20165;-82
2021/03/12 00:25:29;;;;;;;3.30;2.20;;;5.80;99.90;;;;;;6175977;23;20423;-82
2021/03/12 00:27:57;;;;;;;4.83;2.40;;;5.80;99.90;;;;;;6150134;23;20452;-83
2021/03/12 00:30:25;;;;;;;7.10;3.20;;;5.80;99.90;;;;;;6166688;23;20428;-83
2021/03/12 00:32:52;;;;;;;7.00;2.87;;;5.80;99.90;;;;;;6137104;23;20552;-83
2021/03/12 00:35:19;;;;;;;4.90;3.07;;;5.90;99.90;;;;;;6138014;23;20420;-82
2021/03/12 00:37:47;;;;;;;5.80;3.83;;;5.80;99.90;;;;;;6163558;23;20491;-82
2021/03/12 00:40:17;;;;;;;6.50;3.10;;;5.80;99.90;;;;;;6137254;23;20427;-82
2021/03/12 00:42:45;;;;;;;5.03;3.67;;;5.80;99.90;;;;;;6138043;23;20439;-82
2021/03/12 00:45:16;;;;;;;7.03;3.67;;;5.80;99.90;;;;;;6137567;23;20432;-82
2021/03/12 00:47:47;;;;;;;4.40;2.80;;;5.80;99.90;;;;;;6162231;23;20448;-82
2021/03/12 00:50:20;;;;;;;7.30;3.30;;;5.80;99.90;;;;;;6163078;23;20963;-82
2021/03/12 00:52:48;;;;;;;5.87;3.63;;;5.80;99.90;;;;;;6165030;23;20412;-82
2021/03/12 00:55:15;;;;;;;6.03;3.07;;;5.80;99.90;;;;;;6174145;23;20411;-82
2021/03/12 00:57:48;;;;;;;6.27;3.60;;;5.80;99.90;;;;;;6136513;23;20436;-82
2021/03/12 01:00:19;;;;;;;6.07;3.33;;;5.80;99.90;;;;;;6136164;23;20416;-82
2021/03/12 01:02:46;;;;;;;5.87;3.73;;;5.70;99.90;;;;;;6136846;23;20507;-82
2021/03/12 01:05:14;;;;;;;6.30;3.30;;;5.70;99.90;;;;;;6161290;23;20413;-81
2021/03/12 01:07:42;;;;;;;5.37;3.57;;;5.70;99.90;;;;;;6160740;23;20452;-81
2021/03/12 01:10:12;;;;;;;7.20;3.57;;;5.80;99.90;;;;;;6137371;23;20421;-81
2021/03/12 01:12:39;;;;;;;9.90;4.13;;;5.70;99.90;;;;;;6171752;23;20405;-81
2021/03/12 01:15:11;;;;;;;5.33;3.73;;;5.70;99.90;;;;;;6135086;23;20422;-81
2021/03/12 01:17:39;;;;;;;6.87;3.50;;;5.70;99.90;;;;;;6160717;23;20436;-81
2021/03/12 01:20:10;;;;;;;5.90;3.40;;;5.70;99.90;;;;;;6135516;23;20457;-81
2021/03/12 01:22:38;;;;;;;10.00;4.10;;;5.70;99.90;;;;;;6136370;23;20417;-81
2021/03/12 01:25:08;;;;;;;8.97;4.90;;;5.70;99.90;;;;;;6135666;23;20397;-81
2021/03/12 01:27:39;;;;;;;12.47;4.73;;;5.70;99.90;;;;;;6160589;23;20452;-81
2021/03/12 01:30:14;;;;;;;8.93;3.43;;;5.70;99.90;;;;;;6138036;23;20412;-81
2021/03/12 01:32:42;;;;;;;8.53;3.60;;;5.70;99.90;;;;;;6137058;23;20408;-82
2021/03/12 01:35:12;;;;;;;5.40;3.73;;;5.70;99.90;;;;;;6137947;23;20420;-82
2021/03/12 01:37:39;;;;;;;8.67;4.00;;;5.70;99.90;;;;;;6174980;23;20467;-82
2021/03/12 01:40:09;;;;;;;8.97;3.57;;;5.80;99.90;;;;;;6137587;23;20420;-82
2021/03/12 01:42:54;;;;;;;8.30;4.23;;;5.80;99.90;;;;;;6136243;23;20463;-82
2021/03/12 01:45:26;;;;;;;10.80;4.80;;;5.80;99.90;;;;;;6137069;23;20412;-82
2021/03/12 01:47:55;;;;;;;9.20;4.57;;;5.90;99.90;;;;;;6161107;23;20461;-82
2021/03/12 01:50:24;;;;;;;10.63;4.20;;;5.90;99.90;;;;;;6162419;23;20417;-82
2021/03/12 01:52:51;;;;;;;7.10;4.23;;;5.90;99.90;;;;;;6161849;23;20417;-82
2021/03/12 01:55:27;;;;;;;7.90;4.10;;;5.90;99.90;;;;;;6137042;23;20422;-82
2021/03/12 01:57:55;;;;;;;9.30;4.47;;;6.00;99.90;;;;;;6161077;23;20471;-82
2021/03/12 02:00:30;;;;;;;8.13;3.83;;;6.00;99.90;;;;;;6161545;23;20411;-82
2021/03/12 02:03:14;;;;;;;10.23;5.83;;;6.10;99.90;;;;;;6160829;23;20439;-81
2021/03/12 02:05:53;;;;;;;9.60;3.90;;;6.10;99.90;;;;;;6136900;23;20401;-81
2021/03/12 02:08:21;;;;;;;7.80;4.30;;;6.10;99.90;;;;;;6161096;23;20461;-81
2021/03/12 02:10:58;;;;;;;7.70;3.50;;;6.20;99.90;;;;;;6160997;23;20404;-81
2021/03/12 02:13:33;;;;;;;8.20;4.20;;;6.10;99.90;;;;;;6137656;23;20449;-81
2021/03/12 02:16:10;;;;;;;11.23;4.00;;;6.20;99.90;;;;;;6161042;23;20481;-81
2021/03/12 02:18:53;;;;;;;11.33;4.20;;;6.20;99.90;;;;;;6161524;23;20491;-81
2021/03/12 02:21:28;;;;;;;11.50;4.40;;;6.20;99.90;;;;;;6163059;23;20441;-81
2021/03/12 02:24:07;;;;;;;7.20;3.37;;;6.30;99.90;;;;;;6136899;23;20418;-81
2021/03/12 02:26:56;;;;;;;10.40;4.60;;;6.30;99.90;;;;;;6160934;23;20444;-81
2021/03/12 02:29:25;;;;;;;7.43;3.47;;;6.30;99.90;;;;;;6139031;23;20956;-82
2021/03/12 02:31:57;;;;;;;7.60;3.80;;;6.30;99.90;;;;;;6136240;23;20827;-81
2021/03/12 02:34:29;;;;;;;9.60;4.05;;;6.40;99.90;;;;;;6160333;23;20455;-81
2021/03/12 02:37:07;;;;;;;10.60;4.93;;;6.40;99.90;;;;;;6159776;23;20165;-81
2021/03/12 02:39:48;;;;;;;8.40;3.80;;;6.40;99.90;;;;;;6159339;23;20427;-82
2021/03/12 02:42:19;;;;;;;6.73;3.77;;;6.40;99.90;;;;;;6160643;23;20760;-82
2021/03/12 02:44:52;;;;;;;7.82;3.55;;;6.40;99.90;;;;;;6159326;23;20872;-82
2021/03/12 02:47:24;;;;;;;11.83;4.13;;;6.50;99.90;;;;;;6134424;23;20208;-81
2021/03/12 02:49:52;;;;;;;5.43;3.27;;;6.50;99.90;;;;;;6159608;23;20416;-81
2021/03/12 02:52:21;;;;;;;5.40;3.23;;;6.40;99.90;;;;;;6159139;23;20448;-81
2021/03/12 02:54:49;;;;;;;8.30;3.53;;;6.50;99.90;;;;;;6134748;23;20875;-81
2021/03/12 02:57:22;;;;;;;8.83;4.30;;;6.50;99.90;;;;;;6159498;23;20445;-81
2021/03/12 02:59:56;;;;;;;6.57;3.63;;;6.50;99.90;;;;;;6159225;23;20408;-81
2021/03/12 03:02:44;;;;;;;5.90;2.87;;;6.40;99.90;;;;;;6161428;23;20479;-81
2021/03/12 03:05:24;;;;;;;14.43;4.63;;;6.50;99.90;;;;;;6135199;23;20447;-81
2021/03/12 03:07:55;;;;;;;4.73;3.27;;;6.50;99.90;;;;;;6159404;23;20440;-81
2021/03/12 03:10:26;;;;;;;8.80;3.30;;;6.50;99.90;;;;;;6136786;23;20985;-82
2021/03/12 03:12:55;;;;;;;7.30;3.30;;;6.50;99.90;;;;;;6160132;23;20413;-82
2021/03/12 03:15:24;;;;;;;5.87;3.23;;;6.50;99.90;;;;;;6135559;23;20408;-82
2021/03/12 03:17:53;;;;;;;8.67;5.07;;;6.50;99.90;;;;;;6135499;23;20440;-82
2021/03/12 03:20:37;;;;;;;9.13;3.90;;;6.50;99.90;;;;;;6160720;23;20409;-82
2021/03/12 03:23:04;;;;;;;6.33;3.63;;;6.50;99.90;;;;;;6160453;23;20646;-81
2021/03/12 03:25:32;;;;;;;6.10;3.33;;;6.50;99.90;;;;;;6159844;23;20938;-81
2021/03/12 03:28:00;;;;;;;8.53;4.07;;;6.50;99.90;;;;;;6134666;23;20448;-81
2021/03/12 03:30:27;;;;;;;7.10;4.37;;;6.50;99.90;;;;;;6135769;23;20420;-81
2021/03/12 03:33:01;;;;;;;6.33;3.60;;;6.50;99.90;;;;;;6135543;23;20416;-81
2021/03/12 03:35:31;;;;;;;10.10;3.90;;;6.50;99.90;;;;;;6165317;23;20890;-81
2021/03/12 03:37:58;;;;;;;10.17;4.10;;;6.50;99.90;;;;;;6135131;23;20488;-81
2021/03/12 03:40:26;;;;;;;9.93;4.77;;;6.50;99.90;;;;;;6159802;23;20412;-82
2021/03/12 03:42:59;;;;;;;5.67;3.47;;;6.50;99.90;;;;;;6158075;23;20424;-81
2021/03/12 03:45:29;;;;;;;7.17;3.17;;;6.50;99.90;;;;;;6134183;23;20465;-81
2021/03/12 03:48:17;;;;;;;6.47;4.30;;;6.50;99.90;;;;;;6146116;23;20482;-81
2021/03/12 03:50:46;;;;;;;7.77;4.27;;;6.50;99.90;;;;;;6171313;23;20402;-81
2021/03/12 03:53:14;;;;;;;5.00;3.60;;;6.50;99.90;;;;;;6136303;23;20420;-81
2021/03/12 03:55:42;;;;;;;6.60;4.00;;;6.50;99.90;;;;;;6136230;23;20415;-82
2021/03/12 03:58:11;;;;;;;5.53;4.03;;;6.50;99.90;;;;;;6136054;23;20490;-81
2021/03/12 04:00:41;;;;;;;8.37;3.80;;;6.50;99.90;;;;;;6134795;23;20513;-81
2021/03/12 04:03:11;;;;;;;10.63;4.40;;;6.50;99.90;;;;;;6136600;23;20504;-81
2021/03/12 04:05:50;;;;;;;6.40;3.57;;;6.50;99.90;;;;;;6160526;23;20728;-81
2021/03/12 04:08:18;;;;;;;7.43;4.03;;;6.50;99.90;;;;;;6160237;23;20440;-81
2021/03/12 04:10:45;;;;;;;7.27;4.07;;;6.40;99.90;;;;;;6133171;23;20479;-81
2021/03/12 04:13:13;;;;;;;6.43;4.03;;;6.40;99.90;;;;;;6158057;23;20453;-81
2021/03/12 04:15:41;;;;;;;11.37;4.27;;;6.50;99.90;;;;;;6157961;23;20427;-81
2021/03/12 04:18:11;;;;;;;7.47;4.57;;;6.40;99.90;;;;;;6134433;23;20439;-81
2021/03/12 04:20:42;;;;;;;5.50;3.37;;;6.40;99.90;;;;;;6135516;23;20417;-80
2021/03/12 04:23:11;;;;;;;6.37;4.10;;;6.40;99.90;;;;;;6135502;23;20920;-81
2021/03/12 04:25:41;;;;;;;7.43;3.50;;;6.40;99.90;;;;;;6160918;23;20511;-81
2021/03/12 04:28:10;;;;;;;8.33;4.50;;;6.30;99.90;;;;;;6161142;23;20440;-81
2021/03/12 04:30:38;;;;;;;6.90;4.30;;;6.40;99.90;;;;;;6135599;23;20431;-81
2021/03/12 04:33:09;;;;;;;7.20;4.00;;;6.40;99.90;;;;;;6160107;23;20452;-81
2021/03/12 04:35:42;;;;;;;4.87;3.63;;;6.30;99.90;;;;;;6136023;23;20901;-81
2021/03/12 04:38:11;;;;;;;12.40;3.60;;;6.40;99.90;;;;;;6160165;23;20753;-81
2021/03/12 04:40:40;;;;;;;7.03;4.27;;;6.40;99.90;;;;;;6159736;23;20747;-81
2021/03/12 04:43:09;;;;;;;5.00;4.00;;;6.30;99.90;;;;;;6135280;23;20424;-81
2021/03/12 04:45:37;;;;;;;4.93;3.40;;;6.40;99.90;;;;;;6135545;23;20441;-81
2021/03/12 04:48:08;;;;;;;6.27;3.63;;;6.40;99.90;;;;;;6134339;23;20507;-81
2021/03/12 04:50:36;;;;;;;7.60;3.60;;;6.40;99.90;;;;;;6133307;23;20420;-81
2021/03/12 04:53:06;;;;;;;8.10;3.00;;;6.50;99.90;;;;;;6160131;23;20170;-81
2021/03/12 04:55:34;;;;;;;6.80;3.47;;;6.40;99.90;;;;;;6159184;23;20761;-81
2021/03/12 04:58:03;;;;;;;5.50;2.85;;;6.40;99.90;;;;;;6135709;23;20420;-81
2021/03/12 05:00:32;;;;;;;5.27;2.73;;;6.40;99.90;;;;;;6160378;23;20176;-81
2021/03/12 05:03:08;;;;;;;6.93;3.77;;;6.40;99.90;;;;;;6160984;23;20451;-81
2021/03/12 05:05:39;;;;;;;7.67;3.33;;;6.40;99.90;;;;;;6135522;23;20404;-81
2021/03/12 05:08:12;;;;;;;6.80;3.63;;;6.30;99.90;;;;;;6158879;23;20501;-81
2021/03/12 05:11:02;;;;;;;7.70;3.23;;;6.30;99.90;;;;;;6159129;23;20439;-81
2021/03/12 05:13:38;;;;;;;8.30;3.87;;;6.40;99.90;;;;;;6158736;23;20450;-81
2021/03/12 05:16:06;;;;;;;9.40;3.87;;;6.30;99.90;;;;;;6158170;23;20437;-81
2021/03/12 05:18:34;;;;;;;6.13;3.80;;;6.30;99.90;;;;;;6133992;23;20441;-81
2021/03/12 05:21:08;;;;;;;7.20;3.43;;;6.30;99.90;;;;;;6134068;23;20413;-80
2021/03/12 05:23:35;;;;;;;9.23;4.23;;;6.30;99.90;;;;;;6133715;23;20427;-80
2021/03/12 05:26:05;;;;;;;11.70;4.27;;;6.30;99.90;;;;;;6134387;23;20409;-80
2021/03/12 05:28:34;;;;;;;9.33;4.03;;;6.30;99.90;;;;;;6133526;23;20536;-81
2021/03/12 05:31:02;;;;;;;8.30;4.20;;;6.30;99.90;;;;;;6170456;23;20407;-80
2021/03/12 05:33:30;;;;;;;7.00;4.20;;;6.30;99.90;;;;;;6159254;23;20453;-80
2021/03/12 05:36:05;;;;;;;8.40;3.90;;;6.30;99.90;;;;;;6135125;23;20430;-80
2021/03/12 05:38:32;;;;;;;8.03;3.97;;;6.20;99.90;;;;;;6136375;23;20465;-80
2021/03/12 05:41:02;;;;;;;6.90;3.50;;;6.30;99.90;;;;;;6168584;23;20444;-80
2021/03/12 05:43:31;;;;;;;7.20;3.97;;;6.20;99.90;;;;;;6144071;23;20906;-80
2021/03/12 05:46:00;;;;;;;11.00;3.60;;;6.30;99.90;;;;;;6169627;23;20421;-80
2021/03/12 05:48:32;;;;;;;7.17;3.17;;;6.20;99.90;;;;;;6167517;23;20451;-80
2021/03/12 05:51:00;;;;;;;6.83;2.87;;;6.20;99.90;;;;;;6141072;23;20452;-80
2021/03/12 05:53:30;;;;;;;7.03;3.30;;;6.20;99.90;;;;;;6158454;23;20425;-80
2021/03/12 05:55:58;;;;;;;8.00;3.57;;;6.20;99.90;;;;;;6133965;23;20422;-80
2021/03/12 05:58:37;;;;;;;6.93;3.03;;;6.20;99.90;;;;;;6135893;23;20511;-80
2021/03/12 06:01:06;;;;;;;4.50;2.90;;;6.20;99.90;;;;;;6137067;23;20413;-80
2021/03/12 06:03:33;;;;;;;6.70;3.43;;;6.20;99.90;;;;;;6159864;23;20743;-80
2021/03/12 06:06:03;;;;;;;12.30;3.80;;;6.20;99.90;;;;;;6159818;23;20404;-80
2021/03/12 06:08:33;;;;;;;6.47;3.30;;;6.20;99.90;;;;;;6133848;23;20437;-80
2021/03/12 06:11:00;;;;;;;7.07;2.97;;;6.20;99.90;;;;;;6134576;23;20730;-80
2021/03/12 06:13:47;;;;;;;9.03;3.50;;;6.20;99.90;;;;;;6160256;23;20474;-80
2021/03/12 06:16:25;;;;;;;6.90;3.20;;;6.20;99.90;;;;;;6160456;23;20502;-80
2021/03/12 06:19:11;;;;;;;10.47;2.97;;;6.20;99.90;;;;;;6158345;23;20861;-80
2021/03/12 06:21:39;;;;;;;7.33;3.40;;;6.10;99.90;;;;;;6134825;23;20411;-80
2021/03/12 06:24:28;;;;;;;8.13;3.83;;;6.10;99.90;;;;;;6164579;23;20905;-80
2021/03/12 06:27:28;;;;;;;9.63;3.60;;;6.10;99.90;;;;;;6148687;23;20409;-80
2021/03/12 06:30:18;;;;;;;4.47;2.70;;;6.10;99.90;;;;;;6160434;23;20433;-80
2021/03/12 06:33:04;;;;;;;6.70;3.17;;;6.10;99.90;;;;;;6159098;23;20423;-80
2021/03/12 06:35:49;;;;;;;8.83;3.00;;;6.10;99.90;;;;;;6133936;23;20423;-80
2021/03/12 06:38:31;;;;;;;6.60;3.07;;;6.10;99.90;;;;;;6157863;23;20437;-80
2021/03/12 06:41:07;;;;;;;7.50;3.40;;;6.10;99.90;;;;;;6133982;23;20519;-80
2021/03/12 06:43:43;;;;;;;6.87;2.80;;;6.10;99.90;;;;;;6158229;23;20474;-79
2021/03/12 06:46:11;;;;;;;5.63;3.40;;;6.10;99.90;;;;;;6134726;23;20452;-80
2021/03/12 06:49:00;;;;;;;6.20;3.00;;;6.10;99.90;;;;;;6133655;23;20788;-80
2021/03/12 06:51:56;;;;;;;9.00;2.97;;;6.20;99.90;;;;;;6133832;23;20416;-80
2021/03/12 06:54:26;;;;;;;6.73;2.70;;;6.20;99.90;;;;;;6158152;23;20407;-80
2021/03/12 06:57:17;;;;;;;6.63;2.93;;;6.40;99.90;;;;;;6133188;23;20411;-80
2021/03/12 06:59:45;;;;;;;7.13;2.67;;;6.30;99.90;;;;;;6157144;23;20429;-80
2021/03/12 07:02:29;;;;;;;6.40;2.80;;;6.50;99.90;;;;;;6158737;23;20428;-80
2021/03/12 07:04:57;;;;;;;5.50;2.65;;;6.50;99.90;;;;;;6134075;23;20499;-80
2021/03/12 07:07:43;;;;;;;6.23;2.83;;;6.60;99.90;;;;;;6169453;23;20244;-80
2021/03/12 07:10:46;;;;;;;6.50;2.80;;;6.70;99.90;;;;;;6142680;23;20418;-80
2021/03/12 07:13:21;;;;;;;5.83;2.30;;;6.70;99.90;;;;;;6133550;23;20446;-80
2021/03/12 07:15:57;;;;;;;5.88;2.53;;;6.70;99.90;;;;;;6132314;23;20492;-80
2021/03/12 07:18:35;;;;;;;7.37;2.93;;;6.80;99.90;;;;;;6134507;23;20197;-81
2021/03/12 07:21:08;;;;;;;6.70;2.73;;;6.80;99.90;;;;;;6159018;23;20900;-81
2021/03/12 07:23:38;;;;;;;7.43;2.30;;;6.80;99.90;;;;;;6158426;23;20439;-81
2021/03/12 07:26:12;;;;;;;6.40;3.10;;;6.90;99.90;;;;;;6158248;23;20423;-80
2021/03/12 07:28:44;;;;;;;6.63;2.57;;;6.90;99.90;;;;;;6159030;23;20443;-80
2021/03/12 07:31:36;;;;;;;6.50;3.40;;;6.90;99.90;;;;;;6158616;23;20447;-80
2021/03/12 07:34:13;;;;;;;13.90;3.07;;;6.80;99.90;;;;;;6134596;23;20413;-80
2021/03/12 07:36:47;;;;;;;8.47;3.47;;;6.90;99.90;;;;;;6133878;23;20426;-80
2021/03/12 07:39:20;;;;;;;5.33;3.03;;;6.80;99.90;;;;;;6158011;23;20435;-80
2021/03/12 07:41:49;;;;;;;7.33;3.50;;;7.00;99.90;;;;;;6158206;23;20483;-80
2021/03/12 07:44:39;;;;;;;6.10;3.33;;;6.90;99.90;;;;;;6170092;23;20409;-80
2021/03/12 07:47:46;;;;;;;8.97;3.60;;;6.90;99.90;;;;;;6159905;23;20510;-81
2021/03/12 07:50:29;;;;;;;10.23;4.03;;;7.00;99.90;;;;;;6158233;23;20535;-80
2021/03/12 07:53:02;;;;;;;8.93;3.80;;;7.10;99.90;;;;;;6162409;23;20414;-80
2021/03/12 07:55:51;;;;;;;10.37;3.60;;;7.10;99.90;;;;;;6160792;23;20426;-81
2021/03/12 07:58:59;;;;;;;6.43;3.57;;;7.20;99.90;;;;;;6152622;23;20869;-81
2021/03/12 08:01:50;;;;;;;7.73;3.90;;;7.20;99.90;;;;;;6161980;23;20414;-80
2021/03/12 08:04:32;;;;;;;11.27;3.60;;;7.20;99.90;;;;;;6161441;23;20419;-80
2021/03/12 08:07:35;;;;;;;8.23;4.00;;;7.20;99.90;;;;;;6153990;23;20416;-81
2021/03/12 08:10:17;;;;;;;7.60;4.40;;;7.30;99.90;;;;;;6144969;23;20439;-81
2021/03/12 08:13:00;;;;;;;15.03;6.03;;;7.30;99.90;;;;;;6170271;23;20406;-80
2021/03/12 08:16:06;;;;;;;8.27;4.47;;;7.20;99.90;;;;;;6142347;23;20443;-80
2021/03/12 08:18:42;;;;;;;9.03;4.70;;;7.20;99.90;;;;;;6135882;23;20496;-80
2021/03/12 08:21:37;;;;;;;8.80;5.90;;;7.20;99.90;;;;;;6158762;23;20423;-81
2021/03/12 08:24:48;;;;;;;9.00;4.20;;;7.20;99.90;;;;;;6157511;23;20401;-80
2021/03/12 08:27:47;;;;;;;10.50;4.40;;;7.30;99.90;;;;;;6149576;23;20498;-80
2021/03/12 08:30:48;;;;;;;12.03;5.00;;;7.20;99.90;;;;;;6171116;23;20437;-80
2021/03/12 08:33:40;;;;;;;6.40;4.47;;;7.30;99.90;;;;;;6150967;23;20432;-80
2021/03/12 08:36:25;;;;;;;8.13;4.80;;;7.30;99.90;;;;;;6171765;23;20400;-80
2021/03/12 08:39:26;;;;;;;6.13;4.70;;;7.30;99.90;;;;;;6170763;23;20435;-80
2021/03/12 08:42:19;;;;;;;11.43;5.30;;;7.30;99.90;;;;;;6162758;23;20398;-80
2021/03/12 08:45:07;;;;;;;6.40;5.33;;;7.50;99.90;;;;;;6170506;23;20387;-79
2021/03/12 08:47:51;;;;;;;8.97;5.50;;;7.50;99.90;;;;;;6159540;23;20506;-80
2021/03/12 08:50:19;;;;;;;7.23;4.80;;;7.60;99.90;;;;;;6135474;23;20436;-80
2021/03/12 08:52:52;;;;;;;12.70;4.87;;;7.80;99.90;;;;;;6160310;23;20411;-80
2021/03/12 08:55:45;;;;;;;11.70;4.10;;;7.80;99.90;;;;;;6160809;23;20416;-80
2021/03/12 08:58:17;;;;;;;6.53;3.70;;;8.00;99.90;;;;;;6159757;23;20436;-80
2021/03/12 09:00:52;;;;;;;8.67;4.17;;;8.10;99.90;;;;;;6135316;23;20733;-80
2021/03/12 09:03:34;;;;;;;7.70;4.70;;;8.10;99.90;;;;;;6134476;23;20412;-80
2021/03/12 09:06:15;;;;;;;8.17;4.73;;;8.10;99.90;;;;;;6160159;23;20416;-80
2021/03/12 09:09:30;;;;;;;9.40;5.40;;;8.30;99.90;;;;;;6080262;23;20442;-80
2021/03/12 09:12:03;;;;;;;7.43;4.47;;;8.40;99.90;;;;;;6120035;23;20417;-80
2021/03/12 09:14:51;;;;;;;8.57;4.10;;;8.40;99.90;;;;;;6135508;23;20968;-80
2021/03/12 09:17:22;;;;;;;9.77;4.93;;;8.60;99.90;;;;;;6133997;23;20408;-80
2021/03/12 09:19:55;;;;;;;9.73;3.87;;;8.60;99.90;;;;;;6134798;23;20447;-79
2021/03/12 09:22:30;;;;;;;9.93;4.50;;;8.70;99.90;;;;;;6134068;23;20740;-80
2021/03/12 09:25:01;;;;;;;9.40;3.90;;;8.60;99.90;;;;;;6135506;23;20503;-80
2021/03/12 09:28:04;;;;;;;9.67;4.10;;;8.70;99.90;;;;;;6153297;23;20428;-80
2021/03/12 09:30:36;;;;;;;8.70;3.60;;;8.70;99.90;;;;;;6158978;23;20915;-80
2021/03/12 09:33:28;;;;;;;5.60;3.80;;;8.70;99.90;;;;;;6159740;23;20792;-80
2021/03/12 09:36:24;;;;;;;8.53;4.40;;;8.70;99.90;;;;;;6159230;23;20446;-80
2021/03/12 09:38:54;;;;;;;7.93;3.40;;;8.70;99.90;;;;;;6134859;23;20432;-80
2021/03/12 09:41:24;;;;;;;8.60;3.53;;;8.70;99.90;;;;;;6135618;23;20478;-80
2021/03/12 09:44:01;;;;;;;10.97;5.30;;;8.70;99.90;;;;;;6133823;23;20416;-79
2021/03/12 09:46:36;;;;;;;4.10;3.30;;;8.80;99.90;;;;;;6134930;23;20416;-79
2021/03/12 09:49:18;;;;;;;6.33;3.93;;;8.90;99.90;;;;;;6160085;23;20447;-80
2021/03/12 09:51:47;;;;;;;5.90;3.43;;;9.00;99.90;;;;;;6160483;23;20412;-81
2021/03/12 09:54:17;;;;;;;8.70;3.93;;;9.20;99.90;;;;;;6159074;23;20427;-80
2021/03/12 09:56:54;;;;;;;6.60;3.60;;;9.30;99.90;;;;;;6134296;23;20419;-80
2021/03/12 09:59:26;;;;;;;9.13;3.37;;;9.40;99.90;;;;;;6133527;23;20459;-80
2021/03/12 10:02:32;;;;;;;6.60;3.03;;;9.50;99.90;;;;;;6135946;23;20404;-80
2021/03/12 10:05:20;;;;;;;10.67;4.60;;;9.50;99.90;;;;;;6134851;23;20416;-80
2021/03/12 10:08:00;;;;;;;7.07;2.87;;;9.50;99.90;;;;;;6171069;23;20432;-80
2021/03/12 10:10:36;;;;;;;4.30;2.60;;;9.50;99.90;;;;;;6135895;23;20455;-80
2021/03/12 10:13:06;;;;;;;6.87;2.47;;;9.50;99.90;;;;;;6134960;23;20494;-79
2021/03/12 10:15:41;;;;;;;6.00;2.77;;;9.50;99.90;;;;;;6133845;23;20424;-80
2021/03/12 10:18:32;;;;;;;4.27;2.10;;;9.40;99.90;;;;;;6159673;23;20428;-80
2021/03/12 10:21:14;;;;;;;4.43;2.50;;;9.40;99.90;;;;;;6158206;23;20471;-80
2021/03/12 10:23:41;;;;;;;6.20;2.33;;;9.40;99.90;;;;;;6134145;23;20491;-80
2021/03/12 10:26:15;;;;;;;5.57;3.03;;;9.40;99.90;;;;;;6134386;23;20888;-79
2021/03/12 10:28:47;;;;;;;6.80;2.93;;;9.40;99.90;;;;;;6158480;23;20436;-80
2021/03/12 10:31:15;;;;;;;5.27;2.47;;;9.40;99.90;;;;;;6135434;23;20413;-80
2021/03/12 10:33:49;;;;;;;4.70;2.60;;;9.30;99.90;;;;;;6159323;23;20416;-80
2021/03/12 10:36:18;;;;;;;7.20;2.77;;;9.30;99.90;;;;;;6133573;23;20412;-80
2021/03/12 10:38:47;;;;;;;5.60;2.80;;;9.40;99.90;;;;;;6159322;23;20440;-80
2021/03/12 10:41:20;;;;;;;5.87;2.73;;;9.40;99.90;;;;;;6159601;23;20412;-79
2021/03/12 10:43:56;;;;;;;6.30;3.30;;;9.40;99.90;;;;;;6159406;23;20413;-80
2021/03/12 10:46:24;;;;;;;10.40;2.93;;;9.40;99.90;;;;;;6160187;23;20458;-80
2021/03/12 10:48:52;;;;;;;6.80;3.20;;;9.40;99.90;;;;;;6134984;23;20456;-80
2021/03/12 10:51:20;;;;;;;6.00;2.63;;;9.40;99.90;;;;;;6160850;23;20416;-80
2021/03/12 10:53:50;;;;;;;10.07;2.87;;;9.40;99.90;;;;;;6160315;23;20420;-80
2021/03/12 10:56:17;;;;;;;3.93;2.50;;;9.40;99.90;;;;;;6134551;23;20474;-80
2021/03/12 10:58:46;;;;;;;7.20;2.87;;;9.50;99.90;;;;;;6169375;23;20427;-80
2021/03/12 11:01:18;;;;;;;5.50;2.40;;;9.50;99.90;;;;;;6134162;23;20927;-80
2021/03/12 11:03:47;;;;;;;7.10;2.67;;;9.60;99.90;;;;;;6133720;23;20752;-79
2021/03/12 11:06:17;;;;;;;6.10;3.13;;;9.60;99.90;;;;;;6158723;23;20443;-79
2021/03/12 11:08:45;;;;;;;7.05;2.80;;;9.70;99.90;;;;;;6169293;23;20496;-80
2021/03/12 11:11:14;;;;;;;5.90;2.83;;;9.80;99.90;;;;;;6133676;23;20165;-80
2021/03/12 11:13:42;;;;;;;6.67;3.10;;;9.80;99.90;;;;;;6169404;23;20736;-79
2021/03/12 11:16:10;;;;;;;5.43;2.90;;;9.80;99.90;;;;;;6169610;23;20396;-80
2021/03/12 11:18:39;;;;;;;7.40;3.03;;;9.80;99.90;;;;;;6157728;23;20527;-80
2021/03/12 11:21:09;;;;;;;9.37;2.90;;;9.80;99.90;;;;;;6133828;23;20405;-79
2021/03/12 11:23:37;;;;;;;7.10;3.37;;;9.80;99.90;;;;;;6133032;23;20425;-80
2021/03/12 11:26:06;;;;;;;5.77;2.80;;;9.70;99.90;;;;;;6157920;23;20416;-80
2021/03/12 11:28:34;;;;;;;5.53;3.00;;;9.70;99.90;;;;;;6134594;23;20450;-80
2021/03/12 11:31:02;;;;;;;8.73;4.83;;;9.70;99.90;;;;;;6135281;23;20432;-80
2021/03/12 11:33:32;;;;;;;8.40;3.43;;;9.60;99.90;;;;;;6135919;23;20483;-80
2021/03/12 11:36:04;;;;;;;6.83;3.50;;;9.60;99.90;;;;;;6135273;23;20408;-80
2021/03/12 11:38:31;;;;;;;8.87;3.50;;;9.70;99.90;;;;;;6159963;23;20523;-80
2021/03/12 11:40:59;;;;;;;6.40;2.50;;;9.70;99.90;;;;;;6135386;23;20408;-79
2021/03/12 11:43:28;;;;;;;6.90;2.90;;;9.70;99.90;;;;;;6159987;23;20416;-79
2021/03/12 11:45:55;;;;;;;6.37;3.07;;;9.80;99.90;;;;;;6160737;23;20416;-80
2021/03/12 11:48:23;;;;;;;8.23;2.93;;;9.90;99.90;;;;;;6171143;23;20434;-80
2021/03/12 11:50:52;;;;;;;8.07;3.33;;;9.90;99.90;;;;;;6172780;23;20436;-80
2021/03/12 11:53:21;;;;;;;6.07;3.30;;;10.00;99.90;;;;;;6168844;23;20420;-80
2021/03/12 11:55:48;;;;;;;17.93;4.13;;;10.00;99.90;;;;;;6170095;23;20405;-80
2021/03/12 11:58:15;;;;;;;6.90;3.33;;;10.10;99.90;;;;;;6139833;23;20446;-80
2021/03/12 12:00:43;;;;;;;5.83;2.90;;;10.10;99.90;;;;;;6172087;23;20876;-80
2021/03/12 12:03:11;;;;;;;7.50;2.80;;;10.20;99.90;;;;;;6136002;23;20408;-80
2021/03/12 12:05:39;;;;;;;7.57;3.37;;;10.20;99.90;;;;;;6135693;23;20484;-79
2021/03/12 12:08:06;;;;;;;7.00;2.70;;;10.20;99.90;;;;;;6160085;23;20910;-80
2021/03/12 12:10:34;;;;;;;7.10;3.53;;;10.20;99.90;;;;;;6171556;23;20428;-80
2021/03/12 12:13:02;;;;;;;7.30;3.17;;;10.20;99.90;;;;;;6135066;23;20421;-80
2021/03/12 12:15:30;;;;;;;8.90;2.77;;;10.30;99.90;;;;;;6136030;23;20740;-80
2021/03/12 12:18:00;;;;;;;9.10;2.90;;;10.30;99.90;;;;;;6171686;23;20797;-80
2021/03/12 12:20:29;;;;;;;7.90;3.13;;;10.40;99.90;;;;;;6160705;23;20939;-79
2021/03/12 12:22:56;;;;;;;7.30;2.53;;;10.50;99.90;;;;;;6138272;23;20507;-79
2021/03/12 12:25:24;;;;;;;6.00;2.57;;;10.60;99.90;;;;;;6163547;23;20421;-80
2021/03/12 12:27:52;;;;;;;6.40;2.77;;;10.60;99.90;;;;;;6162734;23;20491;-80
2021/03/12 12:30:20;;;;;;;6.73;2.23;;;10.70;99.90;;;;;;6135712;23;20436;-80
2021/03/12 12:32:48;;;;;;;9.20;2.40;;;10.70;99.90;;;;;;6134872;23;20421;-80
2021/03/12 12:35:16;;;;;;;5.77;2.43;;;10.70;99.90;;;;;;6160008;23;20409;-80
2021/03/12 12:37:49;;;;;;;7.03;3.03;;;10.70;99.90;;;;;;6135154;23;20935;-80
2021/03/12 12:40:18;;;;;;;7.10;2.63;;;10.70;99.90;;;;;;6135438;23;20416;-80
2021/03/12 12:42:46;;;;;;;10.10;2.60;;;10.70;99.90;;;;;;6135107;23;20441;-80
2021/03/12 12:45:15;;;;;;;10.03;3.57;;;10.60;99.90;;;;;;6160334;23;20420;-80
2021/03/12 12:47:43;;;;;;;7.30;2.50;;;10.60;99.90;;;;;;6134658;23;20506;-80
2021/03/12 12:50:12;;;;;;;6.17;2.73;;;10.50;99.90;;;;;;6159738;23;20440;-80
2021/03/12 12:52:40;;;;;;;6.37;2.73;;;10.50;99.90;;;;;;6135294;23;20439;-80
2021/03/12 12:55:10;;;;;;;7.10;3.20;;;10.40;99.90;;;;;;6133480;23;20425;-80
2021/03/12 12:57:39;;;;;;;7.47;3.10;;;10.40;99.90;;;;;;6134423;23;20256;-79
2021/03/12 13:00:10;;;;;;;10.53;3.70;;;10.30;99.90;;;;;;6134173;23;20409;-79
2021/03/12 13:02:39;;;;;;;7.88;2.60;;;10.10;99.90;;;;;;6170343;23;20428;-79
2021/03/12 13:05:08;;;;;;;7.07;3.40;;;10.00;99.90;;;;;;6171822;23;20232;-80
2021/03/12 13:07:36;;;;;;;7.17;2.80;;;9.90;99.90;;;;;;6135035;23;20436;-80
2021/03/12 13:10:04;;;;;;;5.73;3.00;;;9.80;99.90;;;;;;6171766;23;20417;-80
2021/03/12 13:12:32;;;;;;;7.77;3.33;;;9.70;99.90;;;;;;6159512;23;20470;-80
2021/03/12 13:14:59;;;;;;;6.33;2.93;;;9.70;99.90;;;;;;6134165;23;20416;-80
2021/03/12 13:17:27;;;;;;;4.87;2.20;;;9.70;99.90;;;;;;6159251;23;20755;-80
2021/03/12 13:19:56;;;;;;;7.20;2.57;;;9.60;99.90;;;;;;6133910;23;20427;-79
2021/03/12 13:22:30;;;;;;;7.17;2.90;;;9.60;99.90;;;;;;6158701;23;20499;-79
2021/03/12 13:25:09;;;;;;;6.43;2.60;;;9.50;99.90;;;;;;6158882;23;20408;-80
2021/03/12 13:27:36;;;;;;;4.63;2.20;;;9.50;99.90;;;;;;6134410;23;20436;-80
2021/03/12 13:30:06;;;;;;;3.90;2.50;;;9.50;99.90;;;;;;6158819;23;20432;-80